sensor_id;sensor_type;location;lat;lon;timestamp;pressure;altitude;pressure_sealevel;temperature
77414;BMP280;66486;49.992;19.164;2023-11-21T00:01:19;97990.28;;;9.00
77414;BMP280;66486;49.992;19.164;2023-11-21T00:03:45;97989.88;;;9.01
77414;BMP280;66486;49.992;19.164;2023-11-21T00:06:11;97983.69;;;9.04
77414;BMP280;66486;49.992;19.164;2023-11-21T00:08:37;97987.19;;;9.01
77414;BMP280;66486;49.992;19.164;2023-11-21T00:11:03;97985.81;;;9.09
77414;BMP280;66486;49.992;19.164;2023-11-21T00:13:32;97988.38;;;9.00
77414;BMP280;66486;49.992;19.164;2023-11-21T00:15:58;97984.84;;;8.87
77414;BMP280;66486;49.992;19.164;2023-11-21T00:18:24;97996.25;;;8.91
77414;BMP280;66486;49.992;19.164;2023-11-21T00:20:50;97989.13;;;8.85
77414;BMP280;66486;49.992;19.164;2023-11-21T00:23:16;98004.66;;;8.77
77414;BMP280;66486;49.992;19.164;2023-11-21T00:25:43;97996.16;;;8.95
77414;BMP280;66486;49.992;19.164;2023-11-21T00:28:10;97998.84;;;8.95
77414;BMP280;66486;49.992;19.164;2023-11-21T00:30:35;98006.72;;;9.02
77414;BMP280;66486;49.992;19.164;2023-11-21T00:33:02;98004.56;;;8.97
77414;BMP280;66486;49.992;19.164;2023-11-21T00:35:27;97999.84;;;9.01
77414;BMP280;66486;49.992;19.164;2023-11-21T00:37:54;97997.41;;;9.06
77414;BMP280;66486;49.992;19.164;2023-11-21T00:40:19;98000.94;;;9.03
77414;BMP280;66486;49.992;19.164;2023-11-21T00:42:47;98007.72;;;8.92
77414;BMP280;66486;49.992;19.164;2023-11-21T00:45:13;98005.88;;;8.89
77414;BMP280;66486;49.992;19.164;2023-11-21T00:47:39;98005.81;;;8.92
77414;BMP280;66486;49.992;19.164;2023-11-21T00:50:06;98004.06;;;8.86
77414;BMP280;66486;49.992;19.164;2023-11-21T00:52:32;98007.22;;;8.81
77414;BMP280;66486;49.992;19.164;2023-11-21T00:54:58;98005.13;;;8.88
77414;BMP280;66486;49.992;19.164;2023-11-21T00:57:28;98002.44;;;8.88
77414;BMP280;66486;49.992;19.164;2023-11-21T00:59:55;98003.88;;;8.93
77414;BMP280;66486;49.992;19.164;2023-11-21T01:02:21;98007.47;;;9.02
77414;BMP280;66486;49.992;19.164;2023-11-21T01:04:47;98004.06;;;8.86
77414;BMP280;66486;49.992;19.164;2023-11-21T01:07:13;98000.28;;;8.83
77414;BMP280;66486;49.992;19.164;2023-11-21T01:09:39;98001.09;;;8.80
77414;BMP280;66486;49.992;19.164;2023-11-21T01:12:05;98003.56;;;8.74
77414;BMP280;66486;49.992;19.164;2023-11-21T01:14:32;98006.31;;;8.71
77414;BMP280;66486;49.992;19.164;2023-11-21T01:16:58;98002.22;;;8.83
77414;BMP280;66486;49.992;19.164;2023-11-21T01:19:24;98000.97;;;8.71
77414;BMP280;66486;49.992;19.164;2023-11-21T01:21:50;98003.56;;;8.74
77414;BMP280;66486;49.992;19.164;2023-11-21T01:24:17;98005.56;;;8.70
77414;BMP280;66486;49.992;19.164;2023-11-21T01:26:43;98010.16;;;8.70
77414;BMP280;66486;49.992;19.164;2023-11-21T01:29:11;98008.16;;;8.90
77414;BMP280;66486;49.992;19.164;2023-11-21T01:31:37;98014.78;;;8.86
77414;BMP280;66486;49.992;19.164;2023-11-21T01:34:03;98009.84;;;8.84
77414;BMP280;66486;49.992;19.164;2023-11-21T01:36:32;98016.44;;;8.80
77414;BMP280;66486;49.992;19.164;2023-11-21T01:38:59;98015.38;;;8.77
77414;BMP280;66486;49.992;19.164;2023-11-21T01:41:28;98017.94;;;8.81
77414;BMP280;66486;49.992;19.164;2023-11-21T01:43:54;98019.88;;;8.80
77414;BMP280;66486;49.992;19.164;2023-11-21T01:46:21;98020.97;;;8.66
77414;BMP280;66486;49.992;19.164;2023-11-21T01:48:48;98019.72;;;8.71
77414;BMP280;66486;49.992;19.164;2023-11-21T01:51:15;98015.38;;;8.61
77414;BMP280;66486;49.992;19.164;2023-11-21T01:53:42;98016.28;;;8.70
77414;BMP280;66486;49.992;19.164;2023-11-21T01:56:08;98020.88;;;8.70
77414;BMP280;66486;49.992;19.164;2023-11-21T01:58:35;98017.13;;;8.67
77414;BMP280;66486;49.992;19.164;2023-11-21T02:01:01;98021.06;;;8.63
77414;BMP280;66486;49.992;19.164;2023-11-21T02:03:27;98017.69;;;8.59
77414;BMP280;66486;49.992;19.164;2023-11-21T02:05:54;98009.16;;;8.64
77414;BMP280;66486;49.992;19.164;2023-11-21T02:08:20;98016.03;;;8.65
77414;BMP280;66486;49.992;19.164;2023-11-21T02:10:46;98017.88;;;8.68
77414;BMP280;66486;49.992;19.164;2023-11-21T02:13:13;98022.28;;;8.58
77414;BMP280;66486;49.992;19.164;2023-11-21T02:15:39;98020.97;;;8.66
77414;BMP280;66486;49.992;19.164;2023-11-21T02:18:05;98015.38;;;8.61
77414;BMP280;66486;49.992;19.164;2023-11-21T02:20:32;98015.09;;;8.55
77414;BMP280;66486;49.992;19.164;2023-11-21T02:23:00;98022.97;;;8.62
77414;BMP280;66486;49.992;19.164;2023-11-21T02:25:32;98017.78;;;8.55
77414;BMP280;66486;49.992;19.164;2023-11-21T02:28:02;98013.19;;;8.56
77414;BMP280;66486;49.992;19.164;2023-11-21T02:30:29;98028.78;;;8.77
77414;BMP280;66486;49.992;19.164;2023-11-21T02:32:57;98024.72;;;8.69
77414;BMP280;66486;49.992;19.164;2023-11-21T02:35:24;98025.59;;;8.66
77414;BMP280;66486;49.992;19.164;2023-11-21T02:37:53;98023.91;;;8.56
77414;BMP280;66486;49.992;19.164;2023-11-21T02:40:19;98018.94;;;8.54
77414;BMP280;66486;49.992;19.164;2023-11-21T02:42:50;98036.56;;;8.55
77414;BMP280;66486;49.992;19.164;2023-11-21T02:45:18;98026.25;;;8.54
77414;BMP280;66486;49.992;19.164;2023-11-21T02:47:44;98033.47;;;8.57
77414;BMP280;66486;49.992;19.164;2023-11-21T02:50:11;98034.16;;;8.77
77414;BMP280;66486;49.992;19.164;2023-11-21T02:52:37;98024.25;;;8.74
77414;BMP280;66486;49.992;19.164;2023-11-21T02:55:05;98041.66;;;8.66
77414;BMP280;66486;49.992;19.164;2023-11-21T02:57:33;98041.66;;;8.66
77414;BMP280;66486;49.992;19.164;2023-11-21T02:59:59;98045.31;;;8.76
77414;BMP280;66486;49.992;19.164;2023-11-21T03:02:26;98042.84;;;8.65
77414;BMP280;66486;49.992;19.164;2023-11-21T03:04:52;98048.38;;;8.74
77414;BMP280;66486;49.992;19.164;2023-11-21T03:07:18;98042.53;;;8.79
77414;BMP280;66486;49.992;19.164;2023-11-21T03:09:47;98046.59;;;8.67
77414;BMP280;66486;49.992;19.164;2023-11-21T03:12:13;98050.31;;;8.73
77414;BMP280;66486;49.992;19.164;2023-11-21T03:14:40;98048.38;;;8.74
77414;BMP280;66486;49.992;19.164;2023-11-21T03:17:06;98044.34;;;8.66
77414;BMP280;66486;49.992;19.164;2023-11-21T03:19:32;98039.50;;;8.61
77414;BMP280;66486;49.992;19.164;2023-11-21T03:21:58;98038.84;;;8.57
77414;BMP280;66486;49.992;19.164;2023-11-21T03:24:25;98036.16;;;8.57
77414;BMP280;66486;49.992;19.164;2023-11-21T03:26:52;98040.00;;;8.56
77414;BMP280;66486;49.992;19.164;2023-11-21T03:29:18;98035.69;;;8.58
77414;BMP280;66486;49.992;19.164;2023-11-21T03:31:44;98041.75;;;8.62
77414;BMP280;66486;49.992;19.164;2023-11-21T03:34:16;98039.00;;;8.66
77414;BMP280;66486;49.992;19.164;2023-11-21T03:36:42;98041.75;;;8.62
77414;BMP280;66486;49.992;19.164;2023-11-21T03:39:08;98037.84;;;8.67
77414;BMP280;66486;49.992;19.164;2023-11-21T03:41:34;98045.88;;;8.67
77414;BMP280;66486;49.992;19.164;2023-11-21T03:44:00;98044.34;;;8.66
77414;BMP280;66486;49.992;19.164;2023-11-21T03:46:25;98046.28;;;8.65
77414;BMP280;66486;49.992;19.164;2023-11-21T03:48:52;98049.84;;;8.59
77414;BMP280;66486;49.992;19.164;2023-11-21T03:51:17;98050.38;;;8.70
77414;BMP280;66486;49.992;19.164;2023-11-21T03:53:44;98032.72;;;8.56
77414;BMP280;66486;49.992;19.164;2023-11-21T03:56:09;98042.66;;;8.56
77414;BMP280;66486;49.992;19.164;2023-11-21T03:58:36;98037.44;;;8.49
77414;BMP280;66486;49.992;19.164;2023-11-21T04:01:01;98034.44;;;8.47
77414;BMP280;66486;49.992;19.164;2023-11-21T04:03:28;98039.28;;;8.52
77414;BMP280;66486;49.992;19.164;2023-11-21T04:05:53;98037.44;;;8.49
77414;BMP280;66486;49.992;19.164;2023-11-21T04:08:20;98039.66;;;8.54
77414;BMP280;66486;49.992;19.164;2023-11-21T04:10:45;98036.44;;;8.43
77414;BMP280;66486;49.992;19.164;2023-11-21T04:13:12;98043.31;;;8.44
77414;BMP280;66486;49.992;19.164;2023-11-21T04:15:37;98035.44;;;8.37
77414;BMP280;66486;49.992;19.164;2023-11-21T04:18:10;98034.25;;;8.38
77414;BMP280;66486;49.992;19.164;2023-11-21T04:20:36;98038.53;;;8.35
77414;BMP280;66486;49.992;19.164;2023-11-21T04:23:02;98038.16;;;8.33
77414;BMP280;66486;49.992;19.164;2023-11-21T04:25:28;98036.53;;;8.39
77414;BMP280;66486;49.992;19.164;2023-11-21T04:27:54;98033.19;;;8.35
77414;BMP280;66486;49.992;19.164;2023-11-21T04:30:20;98039.59;;;8.38
77414;BMP280;66486;49.992;19.164;2023-11-21T04:32:46;98035.56;;;8.30
77414;BMP280;66486;49.992;19.164;2023-11-21T04:35:12;98036.59;;;8.36
77414;BMP280;66486;49.992;19.164;2023-11-21T04:37:38;98037.13;;;8.47
77414;BMP280;66486;49.992;19.164;2023-11-21T04:40:07;98041.13;;;8.39
77414;BMP280;66486;49.992;19.164;2023-11-21T04:42:34;98034.41;;;8.31
77414;BMP280;66486;49.992;19.164;2023-11-21T04:45:01;98027.34;;;8.21
77414;BMP280;66486;49.992;19.164;2023-11-21T04:47:31;98037.53;;;8.45
77414;BMP280;66486;49.992;19.164;2023-11-21T04:49:56;98037.44;;;8.49
77414;BMP280;66486;49.992;19.164;2023-11-21T04:52:22;98050.53;;;8.47
77414;BMP280;66486;49.992;19.164;2023-11-21T04:54:48;98054.84;;;8.41
77414;BMP280;66486;49.992;19.164;2023-11-21T04:57:14;98048.50;;;8.51
77414;BMP280;66486;49.992;19.164;2023-11-21T04:59:43;98051.09;;;8.54
77414;BMP280;66486;49.992;19.164;2023-11-21T05:02:09;98057.06;;;8.46
77414;BMP280;66486;49.992;19.164;2023-11-21T05:04:35;98056.53;;;8.51
77414;BMP280;66486;49.992;19.164;2023-11-21T05:07:01;98050.41;;;8.34
77414;BMP280;66486;49.992;19.164;2023-11-21T05:09:27;98062.22;;;8.37
77414;BMP280;66486;49.992;19.164;2023-11-21T05:11:58;98065.66;;;8.37
77414;BMP280;66486;49.992;19.164;2023-11-21T05:14:23;98068.84;;;8.48
77414;BMP280;66486;49.992;19.164;2023-11-21T05:16:50;98080.34;;;8.49
77414;BMP280;66486;49.992;19.164;2023-11-21T05:19:16;98073.38;;;8.35
77414;BMP280;66486;49.992;19.164;2023-11-21T05:21:42;98084.69;;;8.43
77414;BMP280;66486;49.992;19.164;2023-11-21T05:24:08;98088.16;;;8.40
77414;BMP280;66486;49.992;19.164;2023-11-21T05:26:35;98090.13;;;8.39
77414;BMP280;66486;49.992;19.164;2023-11-21T05:29:01;98097.06;;;8.37
77414;BMP280;66486;49.992;19.164;2023-11-21T05:31:27;98100.72;;;8.27
77414;BMP280;66486;49.992;19.164;2023-11-21T05:33:53;98100.84;;;8.20
77414;BMP280;66486;49.992;19.164;2023-11-21T05:36:19;98096.38;;;8.33
77414;BMP280;66486;49.992;19.164;2023-11-21T05:38:44;98106.59;;;8.38
77414;BMP280;66486;49.992;19.164;2023-11-21T05:41:11;98109.44;;;8.31
77414;BMP280;66486;49.992;19.164;2023-11-21T05:43:39;98112.94;;;8.28
77414;BMP280;66486;49.992;19.164;2023-11-21T05:46:05;98111.44;;;8.27
77414;BMP280;66486;49.992;19.164;2023-11-21T05:48:33;98110.66;;;8.26
77414;BMP280;66486;49.992;19.164;2023-11-21T05:50:59;98109.03;;;8.12
77414;BMP280;66486;49.992;19.164;2023-11-21T05:53:27;98096.38;;;8.13
77414;BMP280;66486;49.992;19.164;2023-11-21T05:55:53;98109.34;;;8.14
77414;BMP280;66486;49.992;19.164;2023-11-21T05:58:19;98108.25;;;8.12
77414;BMP280;66486;49.992;19.164;2023-11-21T06:00:45;98113.41;;;8.23
77414;BMP280;66486;49.992;19.164;2023-11-21T06:03:11;98112.94;;;8.28
77414;BMP280;66486;49.992;19.164;2023-11-21T06:05:38;98119.13;;;8.25
77414;BMP280;66486;49.992;19.164;2023-11-21T06:08:04;98116.63;;;8.14
77414;BMP280;66486;49.992;19.164;2023-11-21T06:10:30;98106.50;;;8.05
77414;BMP280;66486;49.992;19.164;2023-11-21T06:12:56;98117.72;;;8.17
77414;BMP280;66486;49.992;19.164;2023-11-21T06:15:23;98107.66;;;8.04
77414;BMP280;66486;49.992;19.164;2023-11-21T06:17:50;98124.47;;;8.05
77414;BMP280;66486;49.992;19.164;2023-11-21T06:20:18;98121.81;;;8.05
77414;BMP280;66486;49.992;19.164;2023-11-21T06:22:48;98124.53;;;8.01
77414;BMP280;66486;49.992;19.164;2023-11-21T06:25:14;98119.94;;;8.02
77414;BMP280;66486;49.992;19.164;2023-11-21T06:27:47;98118.28;;;8.08
77414;BMP280;66486;49.992;19.164;2023-11-21T06:30:14;98120.91;;;8.11
77414;BMP280;66486;49.992;19.164;2023-11-21T06:32:41;98125.16;;;8.09
77414;BMP280;66486;49.992;19.164;2023-11-21T06:35:11;98129.47;;;8.03
77414;BMP280;66486;49.992;19.164;2023-11-21T06:37:37;98128.59;;;8.09
77414;BMP280;66486;49.992;19.164;2023-11-21T06:40:04;98128.44;;;8.17
77414;BMP280;66486;49.992;19.164;2023-11-21T06:42:30;98129.31;;;8.10
77414;BMP280;66486;49.992;19.164;2023-11-21T06:44:57;98133.69;;;8.24
77414;BMP280;66486;49.992;19.164;2023-11-21T06:47:24;98136.63;;;8.29
77414;BMP280;66486;49.992;19.164;2023-11-21T06:49:55;98140.41;;;8.12
77414;BMP280;66486;49.992;19.164;2023-11-21T06:52:21;98154.22;;;8.30
77414;BMP280;66486;49.992;19.164;2023-11-21T06:54:48;98146.94;;;8.31
77414;BMP280;66486;49.992;19.164;2023-11-21T06:57:17;98154.75;;;8.22
77414;BMP280;66486;49.992;19.164;2023-11-21T06:59:43;98153.88;;;8.28
77414;BMP280;66486;49.992;19.164;2023-11-21T07:02:10;98149.41;;;8.22
77414;BMP280;66486;49.992;19.164;2023-11-21T07:04:36;98160.06;;;8.25
77414;BMP280;66486;49.992;19.164;2023-11-21T07:07:03;98158.34;;;8.35
77414;BMP280;66486;49.992;19.164;2023-11-21T07:09:29;98155.56;;;8.58
77414;BMP280;66486;49.992;19.164;2023-11-21T07:11:56;98157.63;;;8.50
77414;BMP280;66486;49.992;19.164;2023-11-21T07:14:22;98164.31;;;8.42
77414;BMP280;66486;49.992;19.164;2023-11-21T07:16:49;98161.44;;;8.53
77414;BMP280;66486;49.992;19.164;2023-11-21T07:19:15;98165.09;;;8.43
77414;BMP280;66486;49.992;19.164;2023-11-21T07:21:41;98171.25;;;8.40
77414;BMP280;66486;49.992;19.164;2023-11-21T07:24:08;98169.00;;;8.38
77414;BMP280;66486;49.992;19.164;2023-11-21T07:26:35;98159.59;;;8.50
77414;BMP280;66486;49.992;19.164;2023-11-21T07:29:02;98161.91;;;8.48
77414;BMP280;66486;49.992;19.164;2023-11-21T07:31:29;98169.94;;;8.48
77414;BMP280;66486;49.992;19.164;2023-11-21T07:33:55;98175.22;;;8.71
77414;BMP280;66486;49.992;19.164;2023-11-21T07:36:25;98151.81;;;8.55
77414;BMP280;66486;49.992;19.164;2023-11-21T07:38:51;98178.94;;;8.77
77414;BMP280;66486;49.992;19.164;2023-11-21T07:41:18;98179.00;;;8.73
77414;BMP280;66486;49.992;19.164;2023-11-21T07:43:44;98186.66;;;8.91
77414;BMP280;66486;49.992;19.164;2023-11-21T07:46:11;98185.97;;;8.87
77414;BMP280;66486;49.992;19.164;2023-11-21T07:48:41;98194.47;;;8.86
77414;BMP280;66486;49.992;19.164;2023-11-21T07:51:08;98182.91;;;8.89
77414;BMP280;66486;49.992;19.164;2023-11-21T07:53:34;98192.09;;;8.88
77414;BMP280;66486;49.992;19.164;2023-11-21T07:56:08;98196.53;;;8.78
77414;BMP280;66486;49.992;19.164;2023-11-21T07:58:35;98195.63;;;8.85
77414;BMP280;66486;49.992;19.164;2023-11-21T08:01:02;98198.38;;;8.81
77414;BMP280;66486;49.992;19.164;2023-11-21T08:03:30;98197.22;;;8.82
77414;BMP280;66486;49.992;19.164;2023-11-21T08:05:57;98203.28;;;8.86
77414;BMP280;66486;49.992;19.164;2023-11-21T08:08:23;98198.22;;;8.88
77414;BMP280;66486;49.992;19.164;2023-11-21T08:10:50;98203.13;;;8.93
77414;BMP280;66486;49.992;19.164;2023-11-21T08:13:26;98201.81;;;9.17
77414;BMP280;66486;49.992;19.164;2023-11-21T08:15:57;98199.47;;;9.03
77414;BMP280;66486;49.992;19.164;2023-11-21T08:18:28;98206.75;;;9.03
77414;BMP280;66486;49.992;19.164;2023-11-21T08:20:55;98201.97;;;9.10
77414;BMP280;66486;49.992;19.164;2023-11-21T08:23:22;98199.66;;;9.12
77414;BMP280;66486;49.992;19.164;2023-11-21T08:25:52;98204.16;;;9.15
77414;BMP280;66486;49.992;19.164;2023-11-21T08:28:19;98199.66;;;9.12
77414;BMP280;66486;49.992;19.164;2023-11-21T08:30:46;98208.63;;;9.22
77414;BMP280;66486;49.992;19.164;2023-11-21T08:33:12;98211.97;;;9.26
77414;BMP280;66486;49.992;19.164;2023-11-21T08:35:39;98210.34;;;9.48
77414;BMP280;66486;49.992;19.164;2023-11-21T08:38:05;98207.56;;;9.52
77414;BMP280;66486;49.992;19.164;2023-11-21T08:40:31;98218.88;;;9.43
77414;BMP280;66486;49.992;19.164;2023-11-21T08:42:57;98225.44;;;9.58
77414;BMP280;66486;49.992;19.164;2023-11-21T08:45:26;98226.44;;;9.64
77414;BMP280;66486;49.992;19.164;2023-11-21T08:47:52;98216.22;;;9.59
77414;BMP280;66486;49.992;19.164;2023-11-21T08:50:18;98221.34;;;9.70
77414;BMP280;66486;49.992;19.164;2023-11-21T08:52:45;98225.00;;;9.76
77414;BMP280;66486;49.992;19.164;2023-11-21T08:55:14;98228.84;;;9.75
77414;BMP280;66486;49.992;19.164;2023-11-21T08:57:41;98227.38;;;9.74
77414;BMP280;66486;49.992;19.164;2023-11-21T09:00:10;98224.59;;;9.77
77414;BMP280;66486;49.992;19.164;2023-11-21T09:02:40;98223.66;;;9.84
77414;BMP280;66486;49.992;19.164;2023-11-21T09:05:12;98223.16;;;9.73
77414;BMP280;66486;49.992;19.164;2023-11-21T09:07:40;98225.44;;;9.74
77414;BMP280;66486;49.992;19.164;2023-11-21T09:10:13;98228.78;;;9.62
77414;BMP280;66486;49.992;19.164;2023-11-21T09:12:40;98223.41;;;9.62
77414;BMP280;66486;49.992;19.164;2023-11-21T09:15:07;98221.66;;;9.56
77414;BMP280;66486;49.992;19.164;2023-11-21T09:17:35;98216.13;;;9.63
77414;BMP280;66486;49.992;19.164;2023-11-21T09:20:02;98219.16;;;9.49
77414;BMP280;66486;49.992;19.164;2023-11-21T09:22:32;98220.81;;;9.43
77414;BMP280;66486;49.992;19.164;2023-11-21T09:24:58;98221.16;;;9.45
77414;BMP280;66486;49.992;19.164;2023-11-21T09:27:24;98223.31;;;9.50
77414;BMP280;66486;49.992;19.164;2023-11-21T09:29:51;98222.47;;;9.36
77414;BMP280;66486;49.992;19.164;2023-11-21T09:32:18;98226.91;;;9.43
77414;BMP280;66486;49.992;19.164;2023-11-21T09:34:44;98219.22;;;9.45
77414;BMP280;66486;49.992;19.164;2023-11-21T09:37:11;98221.31;;;9.54
77414;BMP280;66486;49.992;19.164;2023-11-21T09:39:37;98227.59;;;9.47
77414;BMP280;66486;49.992;19.164;2023-11-21T09:42:11;98224.34;;;9.56
77414;BMP280;66486;49.992;19.164;2023-11-21T09:47:27;98222.69;;;9.78
77414;BMP280;66486;49.992;19.164;2023-11-21T09:49:54;98221.31;;;9.86
77414;BMP280;66486;49.992;19.164;2023-11-21T09:52:25;98216.75;;;9.99
77414;BMP280;66486;49.992;19.164;2023-11-21T09:54:52;98217.06;;;10.17
77414;BMP280;66486;49.992;19.164;2023-11-21T09:57:20;98215.66;;;9.96
77414;BMP280;66486;49.992;19.164;2023-11-21T09:59:50;98217.53;;;9.83
77414;BMP280;66486;49.992;19.164;2023-11-21T10:02:17;98218.13;;;9.75
77414;BMP280;66486;49.992;19.164;2023-11-21T10:04:45;98223.47;;;9.75
77414;BMP280;66486;49.992;19.164;2023-11-21T10:07:13;98224.06;;;9.82
77414;BMP280;66486;49.992;19.164;2023-11-21T10:09:43;98229.09;;;9.64
77414;BMP280;66486;49.992;19.164;2023-11-21T10:12:11;98228.53;;;9.57
77414;BMP280;66486;49.992;19.164;2023-11-21T10:14:41;98225.94;;;9.69
77414;BMP280;66486;49.992;19.164;2023-11-21T10:17:10;98228.16;;;9.87
77414;BMP280;66486;49.992;19.164;2023-11-21T10:19:38;98225.66;;;9.80
77414;BMP280;66486;49.992;19.164;2023-11-21T10:22:05;98226.25;;;9.71
77414;BMP280;66486;49.992;19.164;2023-11-21T10:24:33;98225.53;;;9.71
77414;BMP280;66486;49.992;19.164;2023-11-21T10:26:59;98219.97;;;9.62
77414;BMP280;66486;49.992;19.164;2023-11-21T10:29:30;98226.94;;;9.75
77414;BMP280;66486;49.992;19.164;2023-11-21T10:31:56;98221.31;;;9.86
77414;BMP280;66486;49.992;19.164;2023-11-21T10:34:24;98216.41;;;9.97
77414;BMP280;66486;49.992;19.164;2023-11-21T10:36:50;98216.69;;;10.03
77414;BMP280;66486;49.992;19.164;2023-11-21T10:39:17;98215.88;;;10.18
77414;BMP280;66486;49.992;19.164;2023-11-21T10:41:45;98210.03;;;10.07
77414;BMP280;66486;49.992;19.164;2023-11-21T10:44:17;98213.69;;;10.13
77414;BMP280;66486;49.992;19.164;2023-11-21T10:46:49;98220.16;;;10.16
77414;BMP280;66486;49.992;19.164;2023-11-21T10:49:20;98216.09;;;10.11
77414;BMP280;66486;49.992;19.164;2023-11-21T10:51:46;98216.66;;;10.31
77414;BMP280;66486;49.992;19.164;2023-11-21T10:54:24;98185.19;;;10.03
77414;BMP280;66486;49.992;19.164;2023-11-21T10:56:58;98209.63;;;10.21
77414;BMP280;66486;49.992;19.164;2023-11-21T10:59:31;98218.75;;;10.40
77414;BMP280;66486;49.992;19.164;2023-11-21T11:01:58;98219.00;;;10.45
77414;BMP280;66486;49.992;19.164;2023-11-21T11:04:27;98215.09;;;10.46
77414;BMP280;66486;49.992;19.164;2023-11-21T11:06:57;98214.34;;;10.33
77414;BMP280;66486;49.992;19.164;2023-11-21T11:09:27;98219.66;;;10.21
77414;BMP280;66486;49.992;19.164;2023-11-21T11:11:54;98216.75;;;9.99
77414;BMP280;66486;49.992;19.164;2023-11-21T11:14:20;98211.84;;;9.81
77414;BMP280;66486;49.992;19.164;2023-11-21T11:16:54;98217.13;;;9.85
77414;BMP280;66486;49.992;19.164;2023-11-21T11:19:20;98211.84;;;9.81
77414;BMP280;66486;49.992;19.164;2023-11-21T11:35:22;98222.75;;;9.74
77414;BMP280;66486;49.992;19.164;2023-11-21T11:37:50;98218.50;;;9.89
77414;BMP280;66486;49.992;19.164;2023-11-21T11:40:15;98218.06;;;9.78
77414;BMP280;66486;49.992;19.164;2023-11-21T11:43:01;98225.44;;;9.74
77414;BMP280;66486;49.992;19.164;2023-11-21T11:45:34;98226.25;;;9.71
77414;BMP280;66486;49.992;19.164;2023-11-21T11:48:07;98219.06;;;9.68
77414;BMP280;66486;49.992;19.164;2023-11-21T11:50:34;98224.50;;;9.81
77414;BMP280;66486;49.992;19.164;2023-11-21T11:53:14;98225.19;;;9.69
77414;BMP280;66486;49.992;19.164;2023-11-21T11:55:40;98231.47;;;9.62
77414;BMP280;66486;49.992;19.164;2023-11-21T11:58:07;98209.66;;;9.44
77414;BMP280;66486;49.992;19.164;2023-11-21T12:00:35;98230.75;;;9.78
77414;BMP280;66486;49.992;19.164;2023-11-21T12:03:05;98229.03;;;9.84
77414;BMP280;66486;49.992;19.164;2023-11-21T12:05:34;98229.25;;;9.89
77414;BMP280;66486;49.992;19.164;2023-11-21T12:08:08;98229.53;;;9.95
77414;BMP280;66486;49.992;19.164;2023-11-21T12:10:39;98224.66;;;9.90
77414;BMP280;66486;49.992;19.164;2023-11-21T12:13:08;98236.22;;;9.87
77414;BMP280;66486;49.992;19.164;2023-11-21T12:15:34;98229.44;;;9.82
77414;BMP280;66486;49.992;19.164;2023-11-21T12:18:01;98233.06;;;9.92
77414;BMP280;66486;49.992;19.164;2023-11-21T12:20:28;98222.97;;;9.80
77414;BMP280;66486;49.992;19.164;2023-11-21T12:22:56;98234.47;;;9.80
77414;BMP280;66486;49.992;19.164;2023-11-21T12:25:29;98230.06;;;9.74
77414;BMP280;66486;49.992;19.164;2023-11-21T12:27:58;98236.00;;;9.65
77414;BMP280;66486;49.992;19.164;2023-11-21T12:30:33;98238.94;;;9.55
77414;BMP280;66486;49.992;19.164;2023-11-21T12:33:02;98239.44;;;9.50
77414;BMP280;66486;49.992;19.164;2023-11-21T12:35:29;98246.00;;;9.49
77414;BMP280;66486;49.992;19.164;2023-11-21T12:37:56;98235.91;;;9.36
77414;BMP280;66486;49.992;19.164;2023-11-21T12:40:26;98238.81;;;9.26
77414;BMP280;66486;49.992;19.164;2023-11-21T12:42:55;98240.06;;;9.21
77414;BMP280;66486;49.992;19.164;2023-11-21T12:45:23;98242.66;;;9.25
77414;BMP280;66486;49.992;19.164;2023-11-21T12:48:05;98239.38;;;9.17
77414;BMP280;66486;49.992;19.164;2023-11-21T12:50:34;98250.97;;;9.14
77414;BMP280;66486;49.992;19.164;2023-11-21T12:53:10;98247.09;;;9.15
77414;BMP280;66486;49.992;19.164;2023-11-21T12:55:43;98249.13;;;9.11
77414;BMP280;66486;49.992;19.164;2023-11-21T12:58:15;98251.03;;;9.11
77414;BMP280;66486;49.992;19.164;2023-11-21T13:00:46;98247.19;;;9.12
77414;BMP280;66486;49.992;19.164;2023-11-21T13:03:14;98249.06;;;8.95
77414;BMP280;66486;49.992;19.164;2023-11-21T13:05:47;98255.78;;;9.03
77414;BMP280;66486;49.992;19.164;2023-11-21T13:08:17;98243.75;;;8.92
77414;BMP280;66486;49.992;19.164;2023-11-21T13:10:49;98255.66;;;8.91
77414;BMP280;66486;49.992;19.164;2023-11-21T13:13:15;98255.19;;;8.96
77414;BMP280;66486;49.992;19.164;2023-11-21T13:15:52;98257.44;;;8.97
77414;BMP280;66486;49.992;19.164;2023-11-21T13:18:20;98258.75;;;8.89
77414;BMP280;66486;49.992;19.164;2023-11-21T13:20:47;98269.88;;;8.88
77414;BMP280;66486;49.992;19.164;2023-11-21T13:23:13;98265.50;;;8.97
77414;BMP280;66486;49.992;19.164;2023-11-21T13:25:42;98263.91;;;8.80
77414;BMP280;66486;49.992;19.164;2023-11-21T13:28:08;98267.97;;;8.88
77414;BMP280;66486;49.992;19.164;2023-11-21T13:30:37;98265.44;;;8.81
77414;BMP280;66486;49.992;19.164;2023-11-21T13:36:22;98256.91;;;8.66
77414;BMP280;66486;49.992;19.164;2023-11-21T13:38:50;98263.13;;;8.83
77414;BMP280;66486;49.992;19.164;2023-11-21T13:41:17;98255.72;;;8.87
77414;BMP280;66486;49.992;19.164;2023-11-21T13:43:44;98263.75;;;8.87
77414;BMP280;66486;49.992;19.164;2023-11-21T13:46:18;98257.44;;;8.77
77414;BMP280;66486;49.992;19.164;2023-11-21T13:48:49;98260.22;;;8.74
77414;BMP280;66486;49.992;19.164;2023-11-21T13:51:22;98268.47;;;8.83
77414;BMP280;66486;49.992;19.164;2023-11-21T13:53:56;98266.72;;;8.73
77414;BMP280;66486;49.992;19.164;2023-11-21T13:56:22;98268.31;;;8.70
77414;BMP280;66486;49.992;19.164;2023-11-21T13:58:51;98266.47;;;8.67
77414;BMP280;66486;49.992;19.164;2023-11-21T14:01:21;98260.63;;;8.72
77414;BMP280;66486;49.992;19.164;2023-11-21T14:06:28;98268.16;;;8.77
77414;BMP280;66486;49.992;19.164;2023-11-21T14:09:00;98284.13;;;8.65
77414;BMP280;66486;49.992;19.164;2023-11-21T14:11:33;98280.28;;;8.46
77414;BMP280;66486;49.992;19.164;2023-11-21T14:14:00;98284.94;;;8.62
77414;BMP280;66486;49.992;19.164;2023-11-21T14:16:26;98285.56;;;8.50
77414;BMP280;66486;49.992;19.164;2023-11-21T14:18:52;98284.38;;;8.51
77414;BMP280;66486;49.992;19.164;2023-11-21T14:21:24;98283.22;;;8.52
77414;BMP280;66486;49.992;19.164;2023-11-21T14:23:50;98284.47;;;8.47
77414;BMP280;66486;49.992;19.164;2023-11-21T14:26:16;98288.31;;;8.46
77414;BMP280;66486;49.992;19.164;2023-11-21T14:28:42;98289.59;;;8.38
77414;BMP280;66486;49.992;19.164;2023-11-21T14:31:11;98285.41;;;8.37
77414;BMP280;66486;49.992;19.164;2023-11-21T14:33:44;98290.63;;;8.44